Etusivu
METAR-TAF:

METAR-TAF

Lentoasemat :

Raton Municipal Airport (Crews Field)

Raton, New Mexico, Yhdysvallat

Leveyspiiri: 36-44-31N, Pituuspiiri: 104-39-28W, korkeus merenpinnasta: 1935 m

Tämänhetkinen sää

Tämä raportti tehtiin 55 minuuttia sitten, kello 09.53 UTC
Tuuli 6 kn koillisesta
Lämpötila 12°C
Kosteus 47%
Ilmanpaine 1024 hPa
Näkyvyys: 16.1 km
selkeää

METAR: KRTN 280953Z AUTO 04006KT 10SM CLR 12/01 A3025 RMK AO2 SLP160 T01170011

Aika: 04:48 (10:48 UTC)


TAF: puuttuu

Säähavainnot ja -ennusteet yli 4000 lentoasemalta (METAR- ja TAF-raportit).

Käytössä olevat sääasemat on merkitty karttaan keltaisilla ja punaisilla pisteillä.

Aseta hiiri pisteen päälle nähdäksesi sääaseman nimen.

Klikkaa sitten nähdäksesi säähavainnot ja -ennusteet.

Kartan vaihtaminen: klikkaa mustalla rastilla varustettuja vihreitä pisteitä, niin voit zoomata sisään; viivalla varustettua vihreää pistettä, niin voit zoomata ulos tai vihreitä nuolia, niin pääset viereisille kartoille.


METAR-TAF: